Time;durP1;ratioP1;P1;durP2;ratioP2;P2;SDS_P1;SDS_P2;PMS_P1;PMS_P2;Temp;Humidity;BMP_temperature;BMP_pressure;BME280_temperature;BME280_humidity;BME280_pressure;Samples;Min_cycle;Max_cycle;Signal;HPM_P1;HPM_P2
2023/09/22 00:00:10;;;;;;;6.80;4.38;;;;;;;22.28;64.97;99619.00;4842618;29;20172;-41
2023/09/22 00:02:36;;;;;;;8.23;4.40;;;;;;;22.33;64.66;99616.25;4842903;29;20258;-40
2023/09/22 00:05:01;;;;;;;6.45;4.28;;;;;;;22.49;64.13;99619.63;4842667;29;20109;-39
2023/09/22 00:07:27;;;;;;;8.60;4.45;;;;;;;22.72;63.11;99626.16;4842275;29;20034;-40
2023/09/22 00:09:52;;;;;;;8.98;4.25;;;;;;;22.58;63.85;99634.19;4842528;29;20026;-39
2023/09/22 00:12:18;;;;;;;6.57;4.28;;;;;;;22.61;63.92;99641.72;4842361;29;20117;-41
2023/09/22 00:14:45;;;;;;;8.95;4.45;;;;;;;22.75;63.07;99643.75;4842138;29;20030;-38
2023/09/22 00:17:11;;;;;;;7.22;4.30;;;;;;;22.72;63.00;99645.16;4842193;29;20544;-40
2023/09/22 00:19:36;;;;;;;7.78;4.30;;;;;;;22.58;63.73;99636.88;4842497;29;20074;-40
2023/09/22 00:22:03;;;;;;;11.88;4.45;;;;;;;22.05;66.00;99628.63;4841836;29;20074;-40
2023/09/22 00:24:28;;;;;;;7.43;4.38;;;;;;;22.12;65.31;99631.00;4842399;29;20034;-39
2023/09/22 00:26:54;;;;;;;9.88;4.55;;;;;;;22.22;64.85;99631.75;4842149;29;20395;-40
2023/09/22 00:29:20;;;;;;;7.78;4.22;;;;;;;22.50;63.38;99623.94;4841688;29;20038;-41
2023/09/22 00:31:46;;;;;;;6.60;4.28;;;;;;;22.41;63.87;99628.38;4842348;29;20030;-39
2023/09/22 00:34:12;;;;;;;5.57;4.05;;;;;;;22.48;63.73;99626.13;4841983;29;20034;-40
2023/09/22 00:36:37;;;;;;;5.80;4.00;;;;;;;22.44;63.93;99633.22;4841842;29;20030;-41
2023/09/22 00:39:04;;;;;;;7.63;4.40;;;;;;;22.19;64.18;99635.00;4842078;29;20578;-42
2023/09/22 00:41:30;;;;;;;7.28;4.20;;;;;;;22.20;64.70;99633.94;4842121;29;20395;-40
2023/09/22 00:43:55;;;;;;;10.70;4.63;;;;;;;22.29;64.73;99638.75;4841767;29;20426;-41
2023/09/22 00:46:24;;;;;;;9.43;4.57;;;;;;;22.22;64.88;99633.66;4841794;29;20037;-41
2023/09/22 00:48:51;;;;;;;8.77;4.93;;;;;;;22.12;65.11;99631.81;4841866;29;20161;-41
2023/09/22 00:51:19;;;;;;;7.53;4.60;;;;;;;22.06;65.87;99641.88;4841660;29;20480;-42
2023/09/22 00:53:46;;;;;;;6.18;4.63;;;;;;;22.12;65.22;99618.25;4841612;29;20525;-38
2023/09/22 00:56:12;;;;;;;8.75;5.22;;;;;;;21.99;65.92;99627.84;4841257;29;20380;-39
2023/09/22 00:58:38;;;;;;;7.88;5.20;;;;;;;21.60;66.77;99612.38;4841749;29;20037;-41
2023/09/22 01:01:04;;;;;;;10.77;5.63;;;;;;;21.60;67.46;99608.88;4841168;29;20122;-39
2023/09/22 01:03:30;;;;;;;10.82;5.63;;;;;;;21.67;67.04;99621.00;4841289;29;20137;-41
2023/09/22 01:05:55;;;;;;;8.02;5.32;;;;;;;21.99;65.87;99646.00;4841379;29;20708;-41
2023/09/22 01:08:21;;;;;;;11.07;5.47;;;;;;;21.99;66.07;99644.13;4841385;29;20030;-40
2023/09/22 01:10:46;;;;;;;7.18;4.75;;;;;;;21.94;66.12;99633.31;4841216;29;20026;-41
2023/09/22 01:13:12;;;;;;;9.90;4.95;;;;;;;22.03;65.76;99637.03;4841314;29;20082;-40
2023/09/22 01:15:43;;;;;;;9.18;5.22;;;;;;;22.13;65.73;99638.84;4841316;29;20030;-41
2023/09/22 01:18:15;;;;;;;6.90;4.90;;;;;;;22.11;65.48;99635.63;4841670;29;20022;-43
2023/09/22 01:20:43;;;;;;;8.02;4.72;;;;;;;22.16;65.25;99637.47;4840906;29;20533;-40
2023/09/22 01:23:13;;;;;;;8.10;4.80;;;;;;;22.19;65.38;99634.22;4840981;29;20029;-41
2023/09/22 01:25:39;;;;;;;7.45;4.75;;;;;;;22.16;65.27;99634.75;4848597;29;20030;-40
2023/09/22 01:28:06;;;;;;;9.18;4.80;;;;;;;22.18;65.27;99644.25;4859448;29;20033;-41
2023/09/22 01:30:33;;;;;;;8.20;4.80;;;;;;;21.95;66.11;99636.81;4859605;29;20074;-40
2023/09/22 01:33:04;;;;;;;7.60;4.75;;;;;;;22.14;65.43;99642.38;4859625;29;20097;-40
2023/09/22 01:35:33;;;;;;;7.93;4.85;;;;;;;22.13;65.20;99643.47;4859659;29;20034;-42
2023/09/22 01:38:18;;;;;;;;;;;;;;;22.17;65.17;99633.69;4860288;29;20108;-39
2023/09/22 01:40:45;;;;;;;9.40;5.00;;;;;;;22.20;65.35;99636.63;4858994;29;19912;-40
2023/09/22 01:43:11;;;;;;;8.65;5.10;;;;;;;22.01;66.01;99646.53;4859280;29;20049;-40
2023/09/22 01:45:37;;;;;;;9.95;4.75;;;;;;;21.80;67.10;99652.09;4859538;29;20026;-40
2023/09/22 01:48:03;;;;;;;7.55;4.88;;;;;;;21.79;67.35;99661.28;4859280;29;20116;-41
2023/09/22 01:50:37;;;;;;;8.32;5.50;;;;;;;21.95;66.60;99663.91;4859104;29;20173;-40
2023/09/22 01:53:04;;;;;;;8.45;4.72;;;;;;;21.92;66.47;99665.28;4859209;29;20029;-40
2023/09/22 01:55:58;;;;;;;8.68;4.75;;;;;;;22.01;65.98;99668.22;4858586;29;20063;-42
2023/09/22 01:58:24;;;;;;;8.95;5.00;;;;;;;22.18;65.14;99662.38;4858506;29;20044;-42
2023/09/22 02:00:49;;;;;;;11.38;5.47;;;;;;;21.98;66.20;99666.06;4859048;29;20045;-40
2023/09/22 02:03:39;;;;;;;7.60;4.80;;;;;;;22.00;66.29;99677.41;4859393;29;20021;-40
2023/09/22 02:06:10;;;;;;;12.68;5.32;;;;;;;21.70;67.40;99662.97;4859203;29;20036;-40
2023/09/22 02:08:35;;;;;;;9.77;5.22;;;;;;;21.71;67.74;99656.47;4858996;29;20546;-41
2023/09/22 02:11:01;;;;;;;7.60;4.95;;;;;;;21.83;67.22;99667.75;4858791;29;20124;-39
2023/09/22 02:13:26;;;;;;;8.00;5.15;;;;;;;;;;4859109;29;20067;-40
2023/09/22 02:15:52;;;;;;;8.60;4.65;;;;;;;21.91;66.57;99676.38;4859472;29;20128;-41
2023/09/22 02:18:20;;;;;;;10.05;5.00;;;;;;;21.92;66.57;99678.03;4862749;29;20034;-42
2023/09/22 02:20:45;;;;;;;8.23;4.70;;;;;;;21.93;66.84;99685.03;4862363;29;20029;-39
2023/09/22 02:23:14;;;;;;;6.75;4.47;;;;;;;21.97;66.12;99689.63;4862424;29;20036;-42
2023/09/22 02:25:39;;;;;;;7.85;4.35;;;;;;;21.92;66.27;99678.03;4862632;29;20040;-38
2023/09/22 02:28:05;;;;;;;8.50;3.83;;;;;;;21.94;65.54;99673.94;4862505;29;20495;-41
2023/09/22 02:30:35;;;;;;;7.38;3.60;;;;;;;21.92;65.44;99672.59;4862581;29;20029;-42
2023/09/22 02:33:00;;;;;;;6.43;3.80;;;;;;;21.91;65.44;99679.91;4862546;29;20021;-41
2023/09/22 02:35:47;;;;;;;6.68;3.55;;;;;;;21.84;65.71;99665.88;4844446;29;20049;-39
2023/09/22 02:38:12;;;;;;;6.97;3.28;;;;;;;21.97;65.06;99646.28;4843885;29;20033;-40
2023/09/22 02:40:38;;;;;;;7.13;3.60;;;;;;;21.96;65.37;99652.00;4843917;29;20061;-39
2023/09/22 02:43:24;;;;;;;5.30;3.47;;;;;;;21.95;65.46;99648.47;4843650;29;20034;-39
2023/09/22 02:45:51;;;;;;;5.63;3.30;;;;;;;21.81;65.57;99642.84;4841910;29;20667;-41
2023/09/22 02:48:19;;;;;;;4.65;3.40;;;;;;;21.94;64.96;99635.22;4844878;29;20036;-41
2023/09/22 02:51:05;;;;;;;4.55;2.90;;;;;;;21.79;65.51;99650.47;4845143;29;20038;-39
2023/09/22 02:53:32;;;;;;;5.78;3.45;;;;;;;21.77;65.64;99649.94;4848459;29;20041;-40
2023/09/22 02:56:04;;;;;;;6.55;3.22;;;;;;;21.74;65.78;99649.66;4862318;29;20037;-41
2023/09/22 02:58:39;;;;;;;9.18;3.50;;;;;;;21.84;65.55;99652.34;4862404;29;20041;-41
2023/09/22 03:01:24;;;;;;;5.88;3.10;;;;;;;21.90;65.51;99659.34;4861001;29;20189;-39
2023/09/22 03:03:52;;;;;;;6.57;3.28;;;;;;;21.65;66.27;99642.16;4875108;29;20459;-38
2023/09/22 03:06:20;;;;;;;9.70;3.58;;;;;;;21.56;66.60;99648.44;4860940;29;20029;-40
2023/09/22 03:08:45;;;;;;;7.40;3.60;;;;;;;21.66;66.32;99653.78;4860868;29;20583;-41
2023/09/22 03:11:15;;;;;;;11.00;3.45;;;;;;;21.45;67.14;99645.75;4860747;29;20029;-41
2023/09/22 03:13:41;;;;;;;8.90;3.92;;;;;;;21.40;67.42;99642.22;4860685;29;20040;-42
2023/09/22 03:16:06;;;;;;;8.80;3.80;;;;;;;21.48;67.27;99647.91;4860558;29;20033;-41
2023/09/22 03:18:31;;;;;;;7.18;3.90;;;;;;;21.59;66.78;99647.84;4860467;29;20048;-40
2023/09/22 03:20:57;;;;;;;8.18;4.05;;;;;;;21.47;67.63;99649.00;4860343;29;20037;-39
2023/09/22 03:23:23;;;;;;;8.65;4.57;;;;;;;21.36;68.13;99646.59;4860723;29;20030;-41
2023/09/22 03:25:50;;;;;;;8.82;4.53;;;;;;;21.20;68.01;99641.22;4860434;29;20029;-41
2023/09/22 03:28:16;;;;;;;9.27;5.07;;;;;;;21.17;67.84;99639.09;4860076;29;20475;-40
2023/09/22 03:30:41;;;;;;;7.63;4.95;;;;;;;21.31;66.88;99642.00;4860508;29;20030;-40
2023/09/22 03:33:06;;;;;;;8.07;5.15;;;;;;;21.32;67.00;99642.81;4860253;29;20421;-41
2023/09/22 03:35:32;;;;;;;11.18;5.80;;;;;;;21.19;67.03;99646.91;4860320;29;20044;-39
2023/09/22 03:37:58;;;;;;;8.30;5.45;;;;;;;21.12;67.10;99644.50;4860261;29;20041;-40
2023/09/22 03:40:32;;;;;;;12.02;6.30;;;;;;;21.09;67.61;99640.47;4860127;29;20456;-40
2023/09/22 03:42:58;;;;;;;10.73;5.60;;;;;;;21.20;67.13;99643.13;4860655;29;20037;-40
2023/09/22 03:45:24;;;;;;;11.38;5.78;;;;;;;21.00;68.13;99638.59;4860239;29;20455;-40
2023/09/22 03:47:49;;;;;;;8.20;5.20;;;;;;;20.98;68.23;99641.59;4860464;29;20097;-39
2023/09/22 03:50:15;;;;;;;10.00;5.50;;;;;;;20.95;68.44;99649.44;4859924;29;20399;-40
2023/09/22 03:52:41;;;;;;;11.27;5.43;;;;;;;20.87;69.06;99648.09;4857878;29;20502;-42
2023/09/22 03:55:07;;;;;;;8.23;5.25;;;;;;;20.99;68.16;99656.72;4841512;29;20045;-40
2023/09/22 03:57:33;;;;;;;9.88;5.50;;;;;;;20.81;68.83;99671.66;4841653;29;20034;-39
2023/09/22 03:59:58;;;;;;;9.48;5.30;;;;;;;20.84;68.70;99672.97;4800196;29;1251044;-40
2023/09/22 04:02:27;;;;;;;9.32;5.85;;;;;;;20.75;68.85;99671.91;4842617;29;20030;-39
2023/09/22 04:04:54;;;;;;;9.43;5.70;;;;;;;20.81;69.03;99673.50;4842511;29;20048;-41
2023/09/22 04:07:19;;;;;;;10.02;5.78;;;;;;;20.85;69.17;99663.81;4842753;29;20030;-41
2023/09/22 04:09:45;;;;;;;9.32;4.20;;;;;;;20.99;63.93;99661.31;4854571;29;20109;-41
2023/09/22 04:12:11;;;;;;;9.68;5.55;;;;;;;21.81;64.32;99669.13;4861014;29;20112;-39
2023/09/22 04:14:37;;;;;;;9.18;5.45;;;;;;;22.21;63.01;99672.66;4860788;29;20026;-40
2023/09/22 04:17:03;;;;;;;10.38;5.47;;;;;;;22.24;62.94;99675.63;4861048;29;20032;-40
2023/09/22 04:19:33;;;;;;;12.25;5.80;;;;;;;22.34;61.99;99676.69;4860506;29;20109;-40
2023/09/22 04:22:00;;;;;;;11.02;5.63;;;;;;;22.35;62.80;99676.41;4860728;29;20372;-39
2023/09/22 04:24:31;;;;;;;9.90;5.43;;;;;;;22.41;62.84;99674.47;4860701;29;20033;-41
2023/09/22 04:27:00;;;;;;;10.95;6.47;;;;;;;22.52;62.40;99670.53;4860507;29;20025;-39
2023/09/22 04:29:26;;;;;;;14.60;5.97;;;;;;;22.52;62.11;99672.47;4860034;29;20105;-41
2023/09/22 04:31:52;;;;;;;11.18;5.72;;;;;;;22.58;62.03;99666.72;4860478;29;20029;-40
2023/09/22 04:34:19;;;;;;;10.20;6.05;;;;;;;22.63;62.21;99682.91;4860577;29;20061;-41
2023/09/22 04:36:45;;;;;;;7.57;5.35;;;;;;;22.76;61.72;99683.38;4860312;29;20041;-40
2023/09/22 04:39:10;;;;;;;17.75;11.07;;;;;;;22.83;61.42;99681.94;4859516;29;20022;-40
2023/09/22 04:41:36;;;;;;;59.20;36.53;;;;;;;22.94;61.29;99692.69;4860544;29;20025;-40
2023/09/22 04:44:02;;;;;;;63.00;39.13;;;;;;;23.11;60.54;99689.56;4860336;29;20029;-39
2023/09/22 04:46:27;;;;;;;30.33;18.85;;;;;;;23.20;60.13;99695.97;4860488;29;20025;-39
2023/09/22 04:48:54;;;;;;;12.07;7.10;;;;;;;23.18;60.10;99690.03;4860191;29;20034;-39
2023/09/22 04:51:20;;;;;;;10.52;5.45;;;;;;;23.13;60.53;99676.50;4860169;29;20406;-43
2023/09/22 04:53:45;;;;;;;11.98;5.65;;;;;;;23.34;59.93;99693.34;4860039;29;20103;-40
2023/09/22 04:56:11;;;;;;;10.02;5.50;;;;;;;23.46;59.81;99692.97;4858980;29;20017;-41
2023/09/22 04:58:40;;;;;;;10.38;5.60;;;;;;;23.64;59.41;99688.66;4849509;29;20025;-43
2023/09/22 05:01:06;;;;;;;10.63;5.75;;;;;;;23.72;58.95;99699.69;4849197;29;20499;-43
2023/09/22 05:03:31;;;;;;;13.32;5.95;;;;;;;23.95;58.35;99700.78;4849966;29;20060;-41
2023/09/22 05:06:09;;;;;;;8.55;5.20;;;;;;;24.04;57.86;99689.22;4851327;29;20026;-40
2023/09/22 05:08:38;;;;;;;13.48;5.57;;;;;;;24.10;57.95;99697.00;4850193;29;20025;-39
2023/09/22 05:11:05;;;;;;;12.32;5.93;;;;;;;24.23;57.82;99694.66;4851505;29;20026;-40
2023/09/22 05:13:31;;;;;;;38.33;25.58;;;;;;;24.24;57.00;99693.53;4848839;29;20432;-42
2023/09/22 05:16:09;;;;;;;16.77;10.75;;;;;;;24.37;56.44;99695.53;4848613;29;20060;-42
2023/09/22 05:18:36;;;;;;;109.63;64.97;;;;;;;24.48;55.77;99696.94;4848877;29;20061;-41
2023/09/22 05:21:02;;;;;;;10.50;7.25;;;;;;;24.28;55.08;99698.09;4847717;29;20026;-42
2023/09/22 05:23:34;;;;;;;7.68;5.75;;;;;;;24.14;55.17;99692.59;4850369;29;20574;-42
2023/09/22 05:26:06;;;;;;;9.90;6.20;;;;;;;24.02;55.90;99694.94;4852332;29;20071;-40
2023/09/22 05:28:32;;;;;;;10.70;5.70;;;;;;;24.04;56.13;99689.22;4849493;29;20030;-41
2023/09/22 05:30:58;;;;;;;12.95;5.65;;;;;;;24.48;55.18;99688.78;4850302;29;20109;-41
2023/09/22 05:33:24;;;;;;;10.02;5.22;;;;;;;25.06;53.38;99694.91;4850020;29;20113;-40
2023/09/22 05:35:49;;;;;;;9.25;5.35;;;;;;;25.50;52.41;99702.50;4849465;29;20030;-41
2023/09/22 05:38:16;;;;;;;8.55;4.70;;;;;;;25.81;50.35;99699.13;4848641;29;20029;-40
2023/09/22 05:40:43;;;;;;;34.42;20.98;;;;;;;26.10;49.71;99700.69;4850248;29;20021;-39
2023/09/22 05:43:10;;;;;;;9.48;6.13;;;;;;;26.17;49.07;99719.34;4849771;29;20033;-39
2023/09/22 05:45:36;;;;;;;9.60;5.15;;;;;;;26.65;47.86;99716.03;4850446;29;20029;-42
2023/09/22 05:48:02;;;;;;;7.97;4.30;;;;;;;26.92;46.93;99713.16;4842830;29;20052;-42
2023/09/22 05:50:27;;;;;;;6.97;4.57;;;;;;;27.15;46.50;99715.00;4840390;29;20030;-39
2023/09/22 05:52:53;;;;;;;6.70;4.35;;;;;;;27.35;45.31;99724.63;4840139;29;20133;-42
2023/09/22 05:55:19;;;;;;;45.10;30.75;;;;;;;27.10;45.47;99724.16;4840161;29;20049;-40
2023/09/22 05:57:46;;;;;;;25.90;16.00;;;;;;;27.42;44.74;99719.50;4840055;29;20033;-40
2023/09/22 06:00:18;;;;;;;8.85;4.88;;;;;;;27.83;43.86;99721.03;4839455;29;20058;-43
2023/09/22 06:02:48;;;;;;;9.60;4.40;;;;;;;28.04;43.67;99716.56;4839621;29;20415;-40
2023/09/22 06:05:14;;;;;;;7.50;4.80;;;;;;;28.19;42.83;99706.28;4839883;29;20108;-41
2023/09/22 06:07:40;;;;;;;6.70;4.07;;;;;;;28.80;42.35;99723.44;4839867;29;20037;-42
2023/09/22 06:10:06;;;;;;;12.23;5.28;;;;;;;28.98;42.27;99726.16;4839667;29;20030;-41
2023/09/22 06:12:31;;;;;;;12.52;5.95;;;;;;;29.27;40.91;99741.88;4840140;29;20207;-42
2023/09/22 06:15:00;;;;;;;7.32;4.25;;;;;;;28.74;41.33;99729.44;4839951;29;20129;-42
2023/09/22 06:17:25;;;;;;;8.50;4.47;;;;;;;29.19;41.26;99734.50;4839817;29;20026;-43
2023/09/22 06:19:52;;;;;;;8.70;4.07;;;;;;;29.88;40.00;99732.53;4839548;29;20109;-41
2023/09/22 06:22:17;;;;;;;7.13;3.78;;;;;;;30.34;39.11;99728.78;4839774;29;20037;-40
2023/09/22 06:24:43;;;;;;;6.13;3.72;;;;;;;30.82;37.88;99723.00;4839689;29;20034;-42
2023/09/22 06:27:08;;;;;;;7.47;3.90;;;;;;;30.78;37.82;99728.38;4839761;29;20034;-42
2023/09/22 06:29:34;;;;;;;6.55;3.75;;;;;;;30.84;37.63;99734.44;4839728;29;20026;-41
2023/09/22 06:31:59;;;;;;;7.35;3.90;;;;;;;30.73;37.85;99731.31;4839798;29;20034;-43
2023/09/22 06:34:25;;;;;;;5.85;3.97;;;;;;;30.72;38.05;99727.78;4839646;29;20034;-41
2023/09/22 06:36:50;;;;;;;7.18;4.10;;;;;;;30.87;37.17;99740.06;4839484;29;20042;-43
2023/09/22 06:39:16;;;;;;;7.13;3.50;;;;;;;30.34;37.99;99737.03;4839771;29;20034;-43
2023/09/22 06:41:42;;;;;;;6.70;3.70;;;;;;;30.54;37.62;99740.91;4839745;29;20026;-43
2023/09/22 06:44:07;;;;;;;6.30;3.85;;;;;;;29.49;39.98;99738.03;4840163;29;20041;-41
2023/09/22 06:46:35;;;;;;;7.82;3.83;;;;;;;30.07;38.90;99751.28;4839323;29;20026;-43
2023/09/22 06:49:05;;;;;;;6.87;3.73;;;;;;;30.25;38.72;99741.75;4839326;29;20475;-42
2023/09/22 06:51:33;;;;;;;8.52;3.97;;;;;;;30.75;38.12;99740.84;4839415;29;20038;-43
2023/09/22 06:53:59;;;;;;;9.23;4.03;;;;;;;30.40;37.69;99749.41;4839602;29;20053;-44
2023/09/22 06:56:25;;;;;;;7.43;4.30;;;;;;;30.20;37.99;99753.75;4839570;29;20516;-40
2023/09/22 06:58:53;;;;;;;7.07;3.70;;;;;;;29.91;39.30;99754.63;4839999;29;20050;-42
2023/09/22 07:01:19;;;;;;;4.65;3.47;;;;;;;30.16;38.70;99754.75;4839489;29;20054;-41
2023/09/22 07:03:45;;;;;;;5.28;3.90;;;;;;;30.43;38.48;99747.16;4842430;29;20044;-40
2023/09/22 07:06:14;;;;;;;6.20;3.90;;;;;;;29.74;39.60;99747.31;4842625;29;20057;-44
2023/09/22 07:08:41;;;;;;;5.80;3.58;;;;;;;29.32;39.94;99760.03;4853954;29;20041;-45
2023/09/22 07:11:10;;;;;;;6.35;4.13;;;;;;;30.01;38.72;99761.66;4860163;29;20074;-43
2023/09/22 07:13:37;;;;;;;6.38;3.60;;;;;;;30.57;37.99;99750.38;4859979;29;20021;-42
2023/09/22 07:16:03;;;;;;;4.78;3.38;;;;;;;30.99;37.65;99753.06;4854127;29;20356;-42
2023/09/22 07:18:29;;;;;;;6.03;3.63;;;;;;;30.88;36.98;99752.69;4841947;29;20353;-43
2023/09/22 07:20:55;;;;;;;4.53;3.50;;;;;;;31.12;36.90;99751.94;4842165;29;20029;-43
2023/09/22 07:23:21;;;;;;;6.05;3.90;;;;;;;31.25;36.87;99752.75;4842663;29;20586;-43
2023/09/22 07:25:58;;;;;;;5.75;3.78;;;;;;;31.29;36.65;99756.41;4843438;29;20125;-47
2023/09/22 07:28:23;;;;;;;5.80;3.50;;;;;;;31.54;36.04;99757.25;4856355;29;20121;-45
2023/09/22 07:30:49;;;;;;;5.75;3.63;;;;;;;32.03;35.84;99753.66;4859404;29;20619;-43
2023/09/22 07:33:14;;;;;;;8.20;3.58;;;;;;;31.86;35.56;99760.22;4850243;29;20112;-45
2023/09/22 07:35:42;;;;;;;7.47;3.60;;;;;;;32.26;34.91;99758.66;4852210;29;20037;-45
2023/09/22 07:38:07;;;;;;;5.32;3.28;;;;;;;32.71;34.30;99757.56;4851447;29;20658;-43
2023/09/22 07:40:33;;;;;;;5.90;3.30;;;;;;;33.18;33.43;99753.28;4854332;29;20029;-43
2023/09/22 07:42:58;;;;;;;5.60;3.10;;;;;;;33.80;33.04;99759.13;4858546;29;20546;-43
2023/09/22 07:45:24;;;;;;;5.10;3.50;;;;;;;34.34;32.29;99758.31;4858795;29;20099;-48
2023/09/22 07:47:49;;;;;;;7.95;3.30;;;;;;;34.72;32.07;99761.47;4846629;29;20033;-46
2023/09/22 07:50:15;;;;;;;7.20;3.28;;;;;;;35.03;31.42;99750.19;4841566;29;20026;-45
2023/09/22 07:52:42;;;;;;;5.70;3.47;;;;;;;34.95;31.32;99761.47;4847102;29;20022;-44
2023/09/22 07:55:08;;;;;;;7.50;3.60;;;;;;;34.47;31.53;99757.00;4859915;29;20431;-45
2023/09/22 07:57:33;;;;;;;5.63;3.30;;;;;;;34.38;32.06;99761.16;4860298;29;20029;-45
2023/09/22 07:59:59;;;;;;;5.20;3.28;;;;;;;34.23;31.45;99757.31;4859973;29;20453;-46
2023/09/22 08:02:24;;;;;;;9.23;4.80;;;;;;;34.52;31.34;99763.41;4859733;29;20504;-44
2023/09/22 08:04:50;;;;;;;6.95;3.60;;;;;;;34.76;31.16;99760.34;4859650;29;20033;-43
2023/09/22 08:07:16;;;;;;;7.80;3.97;;;;;;;35.02;30.97;99748.56;4856361;29;20068;-48
2023/09/22 08:09:41;;;;;;;10.88;3.88;;;;;;;34.73;31.11;99758.34;4859052;29;20033;-42
2023/09/22 08:12:07;;;;;;;5.40;3.10;;;;;;;35.48;30.29;99745.00;4859515;29;20092;-42
2023/09/22 08:14:34;;;;;;;6.28;3.50;;;;;;;35.84;29.13;99750.28;4859553;29;20513;-49
2023/09/22 08:17:05;;;;;;;9.18;3.25;;;;;;;35.77;29.31;99740.69;4856403;29;20037;-45
2023/09/22 08:19:30;;;;;;;7.07;3.67;;;;;;;35.44;29.29;99746.91;4854984;29;20041;-47
2023/09/22 08:21:57;;;;;;;9.57;3.58;;;;;;;34.23;30.91;99749.84;4850349;29;20048;-46
2023/09/22 08:24:23;;;;;;;5.45;3.60;;;;;;;33.30;32.55;99733.88;4849681;29;20490;-45
2023/09/22 08:26:49;;;;;;;5.80;3.75;;;;;;;32.86;33.44;99740.28;4857178;29;20041;-46
2023/09/22 08:29:15;;;;;;;5.78;3.95;;;;;;;33.01;32.93;99735.91;4859372;29;20025;-45
2023/09/22 08:31:40;;;;;;;12.73;6.18;;;;;;;33.09;34.52;99732.19;4858880;29;20026;-42
2023/09/22 08:34:06;;;;;;;7.88;5.82;;;;;;;33.63;33.30;99740.97;4858608;29;20022;-45
2023/09/22 08:36:33;;;;;;;7.57;4.50;;;;;;;34.02;32.04;99744.63;4859151;29;20128;-43
2023/09/22 08:38:59;;;;;;;7.10;3.95;;;;;;;34.45;31.66;99731.72;4843940;29;20046;-44
2023/09/22 08:41:26;;;;;;;6.95;3.47;;;;;;;34.22;31.75;99723.38;4840348;29;20030;-44
2023/09/22 08:43:53;;;;;;;7.57;3.55;;;;;;;34.19;32.71;99735.13;4840880;29;20030;-47
2023/09/22 08:46:19;;;;;;;5.93;3.58;;;;;;;34.50;32.05;99729.81;4843799;29;20550;-48
2023/09/22 08:48:44;;;;;;;6.00;3.50;;;;;;;33.92;32.19;99734.16;4840377;29;20037;-44
2023/09/22 08:51:10;;;;;;;7.38;3.72;;;;;;;34.07;32.73;99735.25;4840444;29;20094;-47
2023/09/22 08:53:36;;;;;;;5.28;3.38;;;;;;;34.04;31.78;99724.94;4840364;29;20085;-44
2023/09/22 08:56:04;;;;;;;5.75;3.72;;;;;;;33.31;32.38;99733.53;4840343;29;20040;-44
2023/09/22 08:58:30;;;;;;;6.03;3.50;;;;;;;33.37;32.89;99723.03;4840151;29;20033;-42
2023/09/22 09:00:55;;;;;;;7.15;3.55;;;;;;;33.78;32.65;99720.06;4840070;29;20061;-46
2023/09/22 09:03:21;;;;;;;5.32;3.13;;;;;;;33.33;32.88;99721.38;4840332;29;20034;-45
2023/09/22 09:05:47;;;;;;;7.38;4.03;;;;;;;34.20;32.14;99711.91;4851045;29;20025;-45
2023/09/22 09:08:15;;;;;;;5.05;3.45;;;;;;;34.70;31.68;99708.53;4849274;29;20029;-44
2023/09/22 09:10:45;;;;;;;6.68;3.35;;;;;;;35.09;30.97;99706.44;4849050;29;20116;-48
2023/09/22 09:13:18;;;;;;;6.72;3.78;;;;;;;35.54;30.63;99695.69;4848951;29;20068;-45
2023/09/22 09:15:47;;;;;;;7.50;3.72;;;;;;;35.52;30.13;99692.50;4858135;29;20117;-46
2023/09/22 09:18:18;;;;;;;7.57;3.50;;;;;;;35.30;30.83;99692.19;4856115;29;20034;-45
2023/09/22 09:20:45;;;;;;;4.90;3.33;;;;;;;34.86;30.01;99684.31;4851239;29;20022;-45
2023/09/22 09:23:18;;;;;;;10.65;5.22;;;;;;;34.85;31.22;99691.03;4850383;29;20041;-43
2023/09/22 09:25:54;;;;;;;5.68;3.58;;;;;;;34.80;31.00;99691.31;4849594;29;20029;-46
2023/09/22 09:28:20;;;;;;;5.35;3.53;;;;;;;35.43;29.75;99693.56;4850113;29;20467;-46
2023/09/22 09:31:06;;;;;;;6.80;3.33;;;;;;;34.46;30.44;99682.78;4850027;29;20056;-49
2023/09/22 09:33:32;;;;;;;8.63;4.25;;;;;;;34.61;29.98;99681.09;4847341;29;20550;-45
2023/09/22 09:35:58;;;;;;;8.35;3.40;;;;;;;34.73;31.20;99669.91;4854953;29;20065;-43
2023/09/22 09:38:26;;;;;;;8.98;3.30;;;;;;;34.24;31.72;99681.59;4852082;29;20164;-48
2023/09/22 09:40:52;;;;;;;8.80;3.63;;;;;;;33.79;31.67;99675.53;4857527;29;20113;-44
2023/09/22 09:43:17;;;;;;;5.55;3.10;;;;;;;33.86;31.43;99669.38;4856377;29;20510;-46
2023/09/22 09:45:52;;;;;;;10.25;3.30;;;;;;;33.79;31.20;99670.03;4854478;29;20066;-47
2023/09/22 09:48:19;;;;;;;10.00;3.45;;;;;;;33.85;31.50;99660.31;4855711;29;20173;-48
2023/09/22 09:50:48;;;;;;;4.90;3.08;;;;;;;34.53;30.88;99654.53;4857780;29;20021;-44
2023/09/22 09:53:21;;;;;;;5.25;3.22;;;;;;;34.69;31.19;99651.66;4840809;29;20616;-43
2023/09/22 09:55:49;;;;;;;5.30;3.15;;;;;;;34.59;30.25;99648.31;4839681;29;20033;-48
2023/09/22 09:58:16;;;;;;;7.50;3.37;;;;;;;33.44;31.90;99647.97;4839435;29;20045;-45
2023/09/22 10:00:43;;;;;;;3.90;2.75;;;;;;;32.95;32.89;99654.66;4839113;29;20490;-44
2023/09/22 10:03:11;;;;;;;5.38;2.97;;;;;;;33.10;32.73;99651.13;4839246;29;20100;-43
2023/09/22 10:05:38;;;;;;;5.65;3.13;;;;;;;33.84;32.09;99649.63;4852064;29;20092;-46
2023/09/22 10:08:06;;;;;;;7.05;2.85;;;;;;;34.35;31.38;99640.38;4858197;29;20053;-44
2023/09/22 10:10:33;;;;;;;6.55;3.25;;;;;;;35.09;30.62;99647.56;4858088;29;20033;-44
2023/09/22 10:12:59;;;;;;;4.13;3.00;;;;;;;35.59;29.07;99638.06;4857521;29;20714;-43
2023/09/22 10:15:50;;;;;;;7.18;3.17;;;;;;;34.56;30.64;99637.22;4857711;29;20112;-46
2023/09/22 10:18:17;;;;;;;5.55;3.13;;;;;;;34.02;31.72;99642.50;4857852;29;20093;-46
2023/09/22 10:20:47;;;;;;;8.27;3.35;;;;;;;34.18;31.36;99623.13;4857617;29;20030;-45
2023/09/22 10:23:22;;;;;;;7.28;3.10;;;;;;;33.69;31.56;99634.75;4856351;29;20044;-43
2023/09/22 10:26:19;;;;;;;5.30;3.25;;;;;;;33.10;32.41;99623.56;4858036;29;20029;-47
2023/09/22 10:28:45;;;;;;;6.03;3.40;;;;;;;33.28;32.33;99626.75;4857820;29;20491;-45
2023/09/22 10:31:11;;;;;;;6.38;3.25;;;;;;;32.94;32.44;99614.50;4857642;29;20065;-45
2023/09/22 10:33:37;;;;;;;6.15;3.30;;;;;;;32.27;33.50;99614.34;4858545;29;20034;-45
2023/09/22 10:36:04;;;;;;;6.80;3.15;;;;;;;31.58;34.67;99608.09;4851047;29;20523;-46
2023/09/22 10:38:53;;;;;;;5.82;3.15;;;;;;;31.68;34.75;99604.84;4854169;29;20041;-46
2023/09/22 10:41:19;;;;;;;6.97;3.17;;;;;;;32.06;34.85;99600.81;4857469;29;20117;-43
2023/09/22 10:43:58;;;;;;;6.05;3.30;;;;;;;32.42;33.74;99596.25;4860289;29;20410;-43
2023/09/22 10:46:25;;;;;;;6.25;3.30;;;;;;;31.84;34.74;99588.41;4842302;29;20045;-44
2023/09/22 10:48:50;;;;;;;7.63;3.40;;;;;;;31.69;35.12;99581.69;4842315;29;20068;-45
2023/09/22 10:51:18;;;;;;;5.68;3.17;;;;;;;32.11;34.46;99586.81;4843058;29;20034;-43
2023/09/22 10:53:55;;;;;;;6.65;3.35;;;;;;;32.48;33.99;99586.56;4858658;29;20089;-41
2023/09/22 10:56:21;;;;;;;6.45;3.70;;;;;;;33.26;32.83;99579.44;4861195;29;20041;-45
2023/09/22 10:58:48;;;;;;;7.05;3.20;;;;;;;33.97;32.14;99567.50;4861085;29;20089;-44
2023/09/22 11:01:13;;;;;;;7.85;3.33;;;;;;;33.66;32.19;99580.28;4860503;29;20058;-43
2023/09/22 11:03:53;;;;;;;6.25;3.20;;;;;;;33.23;32.20;99565.59;4860873;29;20486;-42
2023/09/22 11:06:18;;;;;;;11.15;6.30;;;;;;;33.02;32.51;99560.38;4860786;29;20068;-44
2023/09/22 11:08:51;;;;;;;11.07;6.57;;;;;;;33.01;32.40;99558.75;4860830;29;20064;-40
2023/09/22 11:11:17;;;;;;;7.43;3.97;;;;;;;33.29;31.98;99555.88;4860527;29;20052;-43
2023/09/22 11:13:56;;;;;;;8.35;3.97;;;;;;;33.44;32.29;99563.28;4855578;29;20257;-42
2023/09/22 11:16:22;;;;;;;6.93;3.25;;;;;;;33.43;32.05;99555.34;4851535;29;20430;-42
2023/09/22 11:18:48;;;;;;;4.15;2.80;;;;;;;33.62;31.65;99555.34;4855188;29;20155;-43
2023/09/22 11:21:14;;;;;;;5.40;2.90;;;;;;;33.81;31.56;99538.00;4860602;29;20470;-45
2023/09/22 11:23:41;;;;;;;9.57;3.33;;;;;;;34.06;31.53;99546.78;4860411;29;20068;-45
2023/09/22 11:26:08;;;;;;;5.65;3.00;;;;;;;34.08;31.08;99543.63;4860320;29;20068;-45
2023/09/22 11:28:36;;;;;;;8.07;3.03;;;;;;;33.18;32.06;99536.31;4860268;29;20033;-44
2023/09/22 11:31:20;;;;;;;8.90;3.38;;;;;;;33.05;33.20;99535.66;4860352;29;20297;-46
2023/09/22 11:33:59;;;;;;;9.68;6.00;;;;;;;33.38;32.36;99528.09;4860635;29;20033;-45